Dolph, Arkansas
Current Conditions -  °F | °C
As of 5:53 PM on Thursday 18 Dec 2014 (Local Time) from KBPK Reporting Station
Overcast Overcast  
Wind Chill: 38°   Ceiling: 800
Heat Index: 38°   Visibility: 8mi
Dew Point: 35°   Wind: 0mph
Humidity: 89%   Direction: NA
Pressure: 30.18"   Gusts: NA
Location:  36.23°N, 92.11°W
Report Text: KBPK 182353Z AUTO 00000KT 8SM OVC008 03/02 A3018 RMK AO2 SLP225 T00330017 10033 20022 53007
Loading
Personal Weather Stations






























Interactive Weather Map New forecast layout! Learn more

10-Day Weather Forecast

Advertisements
Track Severe Weather on mobile